Time;durP1;ratioP1;P1;durP2;ratioP2;P2;SDS_P1;SDS_P2;PMS_P1;PMS_P2;Temp;Humidity;BMP_temperature;BMP_pressure;BME280_temperature;BME280_humidity;BME280_pressure;Samples;Min_cycle;Max_cycle;Signal;HPM_P1;HPM_P2
2023/09/20 00:02:17;;;;;;;2.22;1.48;;;;;12.80;94120.00;;;;7398008;19;20161;-76
2023/09/20 00:04:52;;;;;;;2.05;1.48;;;;;12.80;94116.00;;;;7400215;19;20145;-77
2023/09/20 00:07:35;;;;;;;2.50;1.88;;;;;12.70;94115.00;;;;7400126;19;20136;-76
2023/09/20 00:10:04;;;;;;;2.72;1.30;;;;;12.60;94116.00;;;;7398310;19;20688;-76
2023/09/20 00:12:40;;;;;;;3.67;1.67;;;;;12.60;94116.00;;;;7400765;19;20184;-76
2023/09/20 00:15:09;;;;;;;3.65;1.70;;;;;12.50;94106.00;;;;7400795;19;20149;-76
2023/09/20 00:17:44;;;;;;;2.45;1.55;;;;;12.70;94106.00;;;;7398388;19;20216;-75
2023/09/20 00:20:12;;;;;;;3.88;1.83;;;;;12.90;94111.00;;;;7400453;19;20236;-76
2023/09/20 00:22:47;;;;;;;2.13;1.40;;;;;13.00;94110.00;;;;7401323;19;20132;-76
2023/09/20 00:25:15;;;;;;;3.15;1.45;;;;;13.00;94108.00;;;;7397539;19;20145;-76
2023/09/20 00:27:50;;;;;;;3.97;1.52;;;;;13.00;94099.00;;;;7400099;19;20137;-73
2023/09/20 00:30:24;;;;;;;2.13;1.50;;;;;13.20;94095.00;;;;7397292;19;20140;-73
2023/09/20 00:33:01;;;;;;;1.88;1.45;;;;;13.10;94098.00;;;;7399210;19;20136;-73
2023/09/20 00:35:39;;;;;;;2.05;1.30;;;;;13.10;94091.00;;;;7392328;19;20249;-72
2023/09/20 00:38:16;;;;;;;3.65;1.40;;;;;13.20;94093.00;;;;7397862;19;20180;-72
2023/09/20 00:40:51;;;;;;;3.83;1.75;;;;;13.20;94077.00;;;;7397187;19;20174;-73
2023/09/20 00:43:24;;;;;;;2.95;1.42;;;;;13.20;94081.00;;;;7391715;19;20117;-74
2023/09/20 00:46:00;;;;;;;1.63;1.40;;;;;13.40;94088.00;;;;7399245;19;20588;-73
2023/09/20 00:48:41;;;;;;;3.42;1.70;;;;;13.30;94087.00;;;;7398951;19;20608;-74
2023/09/20 00:51:15;;;;;;;3.50;1.30;;;;;13.30;94089.00;;;;7395883;19;20145;-74
2023/09/20 00:53:57;;;;;;;47.53;5.55;;;;;13.30;94090.00;;;;7399925;19;20594;-73
2023/09/20 00:56:32;;;;;;;2.10;1.33;;;;;13.20;94088.00;;;;7396764;19;20588;-73
2023/09/20 00:59:06;;;;;;;1.75;1.50;;;;;13.20;94087.00;;;;7399675;19;20133;-74
2023/09/20 01:01:48;;;;;;;2.00;1.40;;;;;13.30;94084.00;;;;7391499;19;20196;-75
2023/09/20 01:04:23;;;;;;;1.90;1.42;;;;;13.30;94079.00;;;;7396719;19;20145;-74
2023/09/20 01:06:58;;;;;;;4.15;1.30;;;;;13.50;94085.00;;;;7396157;19;20615;-75
2023/09/20 01:09:32;;;;;;;2.05;1.38;;;;;13.40;94092.00;;;;7397033;19;20712;-75
2023/09/20 01:12:00;;;;;;;2.38;1.45;;;;;13.20;94079.00;;;;7395746;19;20148;-73
2023/09/20 01:14:35;;;;;;;2.40;1.27;;;;;13.10;94089.00;;;;7397639;19;20136;-74
2023/09/20 01:17:23;;;;;;;3.58;1.40;;;;;13.00;94086.00;;;;7396242;19;20151;-73
2023/09/20 01:19:57;;;;;;;3.38;1.67;;;;;13.00;94087.00;;;;7395917;19;20666;-73
2023/09/20 01:22:26;;;;;;;1.70;1.38;;;;;12.90;94091.00;;;;7397035;19;20592;-74
2023/09/20 01:25:02;;;;;;;2.72;1.60;;;;;12.80;94088.00;;;;7396509;19;20164;-73
2023/09/20 01:27:32;;;;;;;1.70;1.60;;;;;12.80;94088.00;;;;7397577;19;20129;-74
2023/09/20 01:30:00;;;;;;;1.80;1.33;;;;;12.90;94085.00;;;;7395503;19;20141;-74
2023/09/20 01:32:36;;;;;;;2.67;1.60;;;;;12.90;94083.00;;;;7395523;19;20152;-73
2023/09/20 01:35:07;;;;;;;1.92;1.40;;;;;12.80;94090.00;;;;7397771;19;20137;-74
2023/09/20 01:37:42;;;;;;;2.33;1.67;;;;;12.80;94088.00;;;;7395850;19;20156;-75
2023/09/20 01:40:16;;;;;;;2.97;1.30;;;;;12.80;94081.00;;;;7394419;19;20212;-75
2023/09/20 01:42:50;;;;;;;4.95;1.67;;;;;12.60;94085.00;;;;7397127;19;20492;-76
2023/09/20 01:45:20;;;;;;;3.95;1.50;;;;;12.50;94084.00;;;;7395209;19;20587;-75
2023/09/20 01:47:56;;;;;;;2.50;1.70;;;;;12.40;94087.00;;;;7395053;19;20145;-75
2023/09/20 01:50:30;;;;;;;2.92;1.88;;;;;12.30;94087.00;;;;7395733;19;20137;-75
2023/09/20 01:53:08;;;;;;;1.83;1.40;;;;;12.20;94084.00;;;;7394829;19;20494;-74
2023/09/20 01:55:41;;;;;;;3.65;1.90;;;;;12.10;94084.00;;;;7396411;19;20144;-74
2023/09/20 01:58:16;;;;;;;2.80;1.35;;;;;11.90;94078.00;;;;7396331;19;20487;-75
2023/09/20 02:00:50;;;;;;;1.60;1.40;;;;;11.80;94080.00;;;;7394017;19;20168;-75
2023/09/20 02:03:31;;;;;;;2.05;1.63;;;;;11.80;94073.00;;;;7394448;19;20140;-76
2023/09/20 02:05:59;;;;;;;2.10;1.50;;;;;12.00;94069.00;;;;7392003;19;20476;-74
2023/09/20 02:08:34;;;;;;;6.35;1.98;;;;;12.10;94066.00;;;;7396401;19;20587;-75
2023/09/20 02:11:09;;;;;;;1.88;1.58;;;;;12.30;94068.00;;;;7393047;19;20223;-75
2023/09/20 02:13:44;;;;;;;2.45;1.67;;;;;12.60;94066.00;;;;7395117;19;20144;-75
2023/09/20 02:16:12;;;;;;;4.00;2.00;;;;;12.80;94070.00;;;;7392875;19;20139;-75
2023/09/20 02:18:48;;;;;;;2.65;1.60;;;;;12.80;94062.00;;;;7393788;19;20547;-75
2023/09/20 02:21:16;;;;;;;2.92;1.40;;;;;12.80;94062.00;;;;7396936;19;20133;-75
2023/09/20 02:23:56;;;;;;;2.50;1.67;;;;;12.80;94055.00;;;;7393571;19;20610;-76
2023/09/20 02:26:24;;;;;;;2.45;1.40;;;;;12.80;94057.00;;;;7394589;19;20618;-76
2023/09/20 02:28:59;;;;;;;2.28;1.70;;;;;12.80;94061.00;;;;7397163;19;20125;-76
2023/09/20 02:31:34;;;;;;;3.63;2.22;;;;;12.60;94070.00;;;;7388634;19;20132;-75
2023/09/20 02:34:08;;;;;;;2.13;1.50;;;;;12.50;94061.00;;;;7394959;19;20152;-75
2023/09/20 02:36:37;;;;;;;6.55;2.15;;;;;12.50;94062.00;;;;7396340;19;20576;-75
2023/09/20 02:39:15;;;;;;;2.22;1.70;;;;;12.50;94061.00;;;;7394660;19;20611;-75
2023/09/20 02:41:49;;;;;;;1.73;1.50;;;;;12.30;94065.00;;;;7394085;19;20152;-76
2023/09/20 02:44:17;;;;;;;2.15;1.52;;;;;12.10;94064.00;;;;7394038;19;20228;-76
2023/09/20 02:46:48;;;;;;;2.65;1.65;;;;;12.10;94063.00;;;;7393259;19;20665;-76
2023/09/20 02:49:22;;;;;;;8.20;1.80;;;;;12.10;94066.00;;;;7396508;19;20618;-76
2023/09/20 02:51:57;;;;;;;3.47;1.88;;;;;12.00;94063.00;;;;7393383;19;20128;-75
2023/09/20 02:54:31;;;;;;;3.80;1.48;;;;;11.90;94067.00;;;;7394533;19;20140;-74
2023/09/20 02:57:07;;;;;;;2.28;1.58;;;;;11.80;94055.00;;;;7396400;19;20595;-75
2023/09/20 02:59:35;;;;;;;3.17;1.60;;;;;11.90;94058.00;;;;7395131;19;20129;-76
2023/09/20 03:02:15;;;;;;;4.53;2.05;;;;;11.80;94046.00;;;;7392060;19;20638;-76
2023/09/20 03:04:53;;;;;;;2.60;1.88;;;;;11.70;94041.00;;;;7390801;19;20615;-77
2023/09/20 03:07:27;;;;;;;3.15;1.70;;;;;11.70;94042.00;;;;7394884;19;20576;-75
2023/09/20 03:10:05;;;;;;;1.75;1.60;;;;;11.70;94033.00;;;;7393951;19;20173;-75
2023/09/20 03:12:34;;;;;;;2.00;1.58;;;;;11.70;94025.00;;;;7392370;19;20141;-76
2023/09/20 03:15:10;;;;;;;2.60;1.75;;;;;11.80;94028.00;;;;7393515;19;20584;-76
2023/09/20 03:17:45;;;;;;;2.42;1.70;;;;;11.90;94027.00;;;;7391491;19;20805;-74
2023/09/20 03:20:22;;;;;;;3.40;1.80;;;;;11.90;94028.00;;;;7396600;19;20139;-75
2023/09/20 03:23:03;;;;;;;1.63;1.52;;;;;11.80;94027.00;;;;7400933;19;20245;-75
2023/09/20 03:25:37;;;;;;;4.05;1.60;;;;;11.80;94022.00;;;;7400561;19;20137;-75
2023/09/20 03:28:12;;;;;;;3.88;1.73;;;;;11.80;94018.00;;;;7400949;19;20204;-74
2023/09/20 03:30:40;;;;;;;2.30;1.40;;;;;11.70;94017.00;;;;7397216;19;20121;-74
2023/09/20 03:33:08;;;;;;;4.10;2.00;;;;;11.60;94031.00;;;;7398695;19;20148;-74
2023/09/20 03:35:44;;;;;;;2.03;1.60;;;;;11.70;94031.00;;;;7400179;19;20147;-74
2023/09/20 03:38:14;;;;;;;2.47;1.50;;;;;11.70;94024.00;;;;7400713;19;20140;-74
2023/09/20 03:40:48;;;;;;;2.28;2.00;;;;;11.60;94018.00;;;;7398976;19;20144;-74
2023/09/20 03:43:16;;;;;;;5.93;2.05;;;;;11.60;94019.00;;;;7401725;19;20132;-74
2023/09/20 03:45:52;;;;;;;5.60;1.95;;;;;11.70;94019.00;;;;7399383;19;20144;-75
2023/09/20 03:48:39;;;;;;;2.58;1.63;;;;;11.50;94018.00;;;;7399052;19;20552;-73
2023/09/20 03:51:17;;;;;;;3.40;1.95;;;;;11.40;94024.00;;;;7397882;19;20224;-75
2023/09/20 03:53:45;;;;;;;3.90;1.70;;;;;11.30;94018.00;;;;7399007;19;20156;-76
2023/09/20 03:56:21;;;;;;;5.50;2.63;;;;;11.20;94015.00;;;;7398037;19;20145;-73
2023/09/20 03:58:49;;;;;;;2.28;1.70;;;;;11.40;94013.00;;;;7400127;19;20158;-75
2023/09/20 04:01:23;;;;;;;2.10;1.60;;;;;11.20;94029.00;;;;7395771;19;20184;-75
2023/09/20 04:04:05;;;;;;;2.42;1.80;;;;;11.10;94023.00;;;;7399475;19;20136;-75
2023/09/20 04:06:41;;;;;;;4.85;1.70;;;;;11.10;94019.00;;;;7399419;19;20204;-75
2023/09/20 04:09:13;;;;;;;3.33;1.88;;;;;11.20;94018.00;;;;7397777;19;20133;-74
2023/09/20 04:11:47;;;;;;;3.15;2.13;;;;;11.20;94015.00;;;;7397662;19;20144;-76
2023/09/20 04:14:15;;;;;;;8.00;2.20;;;;;11.50;94009.00;;;;7399764;19;20133;-74
2023/09/20 04:16:53;;;;;;;3.35;1.85;;;;;11.70;94004.00;;;;7397452;19;20129;-75
2023/09/20 04:19:21;;;;;;;3.38;1.60;;;;;11.80;94010.00;;;;7399193;19;20157;-74
2023/09/20 04:21:56;;;;;;;4.13;1.55;;;;;11.90;94000.00;;;;7398381;19;20140;-75
2023/09/20 04:24:32;;;;;;;2.55;1.70;;;;;11.90;93997.00;;;;7398245;19;20152;-75
2023/09/20 04:27:08;;;;;;;3.97;1.80;;;;;11.90;93983.00;;;;7400629;19;20137;-80
2023/09/20 04:29:43;;;;;;;2.17;1.67;;;;;12.00;93984.00;;;;7394738;19;20133;-79
2023/09/20 04:32:18;;;;;;;3.03;1.80;;;;;11.80;93982.00;;;;7394657;19;20155;-78
2023/09/20 04:34:46;;;;;;;3.80;1.75;;;;;11.90;93976.00;;;;7396419;19;20152;-80
2023/09/20 04:37:22;;;;;;;3.90;1.70;;;;;11.80;93985.00;;;;7397256;19;20245;-79
2023/09/20 04:39:50;;;;;;;2.90;1.63;;;;;11.60;93923.00;;;;7397550;19;20141;-79
2023/09/20 04:42:27;;;;;;;2.22;1.77;;;;;11.50;93991.00;;;;7398046;19;20591;-78
2023/09/20 04:44:54;;;;;;;1.73;1.58;;;;;11.50;93982.00;;;;7398022;19;20192;-80
2023/09/20 04:47:22;;;;;;;2.60;1.80;;;;;11.40;93983.00;;;;7399459;19;20133;-79
2023/09/20 04:49:56;;;;;;;3.72;1.80;;;;;11.50;93984.00;;;;7397103;19;20168;-79
2023/09/20 04:52:25;;;;;;;2.38;1.77;;;;;11.50;93984.00;;;;7395059;19;20599;-80
2023/09/20 04:54:59;;;;;;;3.00;1.83;;;;;11.40;93984.00;;;;7397405;19;20478;-80
2023/09/20 04:57:27;;;;;;;14.43;1.95;;;;;11.50;93986.00;;;;7397817;19;20141;-80
2023/09/20 05:00:03;;;;;;;5.82;2.00;;;;;11.40;93993.00;;;;7394227;19;20606;-79
2023/09/20 05:02:37;;;;;;;7.57;2.47;;;;;11.40;93988.00;;;;7394993;19;20168;-80
2023/09/20 05:05:13;;;;;;;2.97;1.73;;;;;11.30;93982.00;;;;7398044;19;20992;-80
2023/09/20 05:07:48;;;;;;;3.70;1.75;;;;;11.40;93995.00;;;;7397330;19;20148;-80
2023/09/20 05:10:16;;;;;;;3.30;1.63;;;;;11.30;93995.00;;;;7396844;19;20136;-80
2023/09/20 05:12:50;;;;;;;4.90;1.90;;;;;11.20;93994.00;;;;7394384;19;20148;-79
2023/09/20 05:15:18;;;;;;;2.88;1.70;;;;;11.20;93993.00;;;;7397312;19;20145;-79
2023/09/20 05:17:52;;;;;;;2.08;1.65;;;;;11.20;93990.00;;;;7396669;19;20611;-80
2023/09/20 05:20:20;;;;;;;3.63;1.58;;;;;11.30;93992.00;;;;7397234;19;20133;-79
2023/09/20 05:22:56;;;;;;;2.30;1.90;;;;;11.30;93997.00;;;;7397226;19;20595;-80
2023/09/20 05:25:27;;;;;;;2.55;2.10;;;;;11.40;93986.00;;;;7396808;19;20137;-80
2023/09/20 05:28:01;;;;;;;3.25;1.55;;;;;11.60;93989.00;;;;7395930;19;20132;-80
2023/09/20 05:30:30;;;;;;;3.17;2.10;;;;;11.80;93984.00;;;;7395679;19;20568;-80
2023/09/20 05:33:04;;;;;;;3.95;1.77;;;;;12.00;93989.00;;;;7394852;19;20211;-81
2023/09/20 05:35:32;;;;;;;3.72;1.60;;;;;12.00;93982.00;;;;7397510;19;20143;-79
2023/09/20 05:38:13;;;;;;;4.25;1.98;;;;;12.10;93980.00;;;;7397696;19;20591;-75
2023/09/20 05:40:47;;;;;;;2.22;1.83;;;;;12.00;93985.00;;;;7392671;19;20634;-75
2023/09/20 05:43:20;;;;;;;3.03;1.67;;;;;12.00;93985.00;;;;7393870;19;20611;-74
2023/09/20 05:45:54;;;;;;;3.45;1.70;;;;;12.10;93981.00;;;;7396683;19;20148;-74
2023/09/20 05:48:22;;;;;;;2.53;1.67;;;;;12.10;93985.00;;;;7394776;19;20133;-74
2023/09/20 05:50:50;;;;;;;1.83;1.60;;;;;12.30;93983.00;;;;7396154;19;20457;-75
2023/09/20 05:53:24;;;;;;;3.97;1.83;;;;;12.60;93975.00;;;;7395544;19;20654;-76
2023/09/20 05:56:08;;;;;;;2.17;1.63;;;;;13.10;93970.00;;;;7398018;19;20121;-74
2023/09/20 05:58:42;;;;;;;4.72;2.00;;;;;13.60;93983.00;;;;7395543;19;20125;-75
2023/09/20 06:01:30;;;;;;;4.10;1.95;;;;;13.80;93987.00;;;;7394146;19;20137;-73
2023/09/20 06:04:08;;;;;;;4.47;1.63;;;;;13.90;93982.00;;;;7394685;19;20636;-74
2023/09/20 06:06:49;;;;;;;2.92;1.75;;;;;14.00;93985.00;;;;7395648;19;20151;-75
2023/09/20 06:09:18;;;;;;;4.32;1.50;;;;;14.00;93989.00;;;;7396009;19;20584;-75
2023/09/20 06:11:53;;;;;;;4.00;1.60;;;;;14.10;93989.00;;;;7393516;19;20152;-75
2023/09/20 06:14:22;;;;;;;2.63;1.73;;;;;14.20;93988.00;;;;7396396;19;20141;-75
2023/09/20 06:16:58;;;;;;;4.88;1.73;;;;;14.30;93984.00;;;;7395475;19;20136;-73
2023/09/20 06:19:32;;;;;;;2.13;1.30;;;;;14.20;93992.00;;;;7393611;19;20623;-74
2023/09/20 06:22:00;;;;;;;3.97;1.60;;;;;14.30;93983.00;;;;7395672;19;20148;-73
2023/09/20 06:24:34;;;;;;;1.70;1.55;;;;;14.30;93980.00;;;;7393411;19;20548;-74
2023/09/20 06:27:03;;;;;;;4.20;1.88;;;;;14.50;93974.00;;;;7394668;19;20159;-75
2023/09/20 06:29:37;;;;;;;2.55;1.65;;;;;14.60;93983.00;;;;7395991;19;20139;-74
2023/09/20 06:32:12;;;;;;;1.88;1.45;;;;;14.80;93972.00;;;;7389146;19;20623;-74
2023/09/20 06:34:47;;;;;;;4.38;1.55;;;;;14.90;93972.00;;;;7394602;19;20607;-75
2023/09/20 06:37:25;;;;;;;3.28;1.83;;;;;15.00;93974.00;;;;7394947;19;20663;-73
2023/09/20 06:40:00;;;;;;;3.03;1.33;;;;;15.10;93972.00;;;;7393383;19;20128;-74
2023/09/20 06:42:30;;;;;;;2.05;1.50;;;;;15.20;93966.00;;;;7394085;19;20141;-73
2023/09/20 06:45:08;;;;;;;3.55;1.45;;;;;15.20;93960.00;;;;7396065;19;20124;-73
2023/09/20 06:47:36;;;;;;;3.00;1.70;;;;;15.30;93965.00;;;;7394650;19;20210;-74
2023/09/20 06:50:12;;;;;;;1.27;1.17;;;;;15.50;93954.00;;;;7396595;19;20200;-74
2023/09/20 06:52:48;;;;;;;2.08;1.60;;;;;15.80;93961.00;;;;7394588;19;20153;-74
2023/09/20 06:55:25;;;;;;;2.38;1.75;;;;;15.90;93959.00;;;;7398692;19;20137;-75
2023/09/20 06:57:54;;;;;;;2.28;1.70;;;;;16.10;93955.00;;;;7404459;19;20137;-73
2023/09/20 07:00:46;;;;;;;2.08;1.60;;;;;16.30;93962.00;;;;7402938;19;20141;-74
2023/09/20 07:03:27;;;;;;;2.97;1.83;;;;;16.40;93961.00;;;;7398843;19;20626;-74
2023/09/20 07:05:56;;;;;;;2.28;1.60;;;;;16.50;93954.00;;;;7401774;19;20215;-76
2023/09/20 07:08:31;;;;;;;2.10;1.40;;;;;16.50;93948.00;;;;7402841;19;20151;-74
2023/09/20 07:11:00;;;;;;;2.40;1.77;;;;;16.50;93948.00;;;;7402050;19;20133;-75
2023/09/20 07:13:36;;;;;;;31.40;3.28;;;;;16.60;93933.00;;;;7400902;19;20164;-75
2023/09/20 07:16:11;;;;;;;15.48;2.20;;;;;16.70;93939.00;;;;7405570;19;20590;-74
2023/09/20 07:18:44;;;;;;;20.30;2.72;;;;;16.70;93941.00;;;;7403182;19;20137;-76
2023/09/20 07:21:20;;;;;;;3.47;1.33;;;;;16.90;93949.00;;;;7403629;19;20137;-75
2023/09/20 07:23:49;;;;;;;3.97;1.67;;;;;16.90;93953.00;;;;7405058;19;20616;-75
2023/09/20 07:26:26;;;;;;;1.58;1.48;;;;;16.80;93953.00;;;;7403114;19;20618;-75
2023/09/20 07:29:00;;;;;;;4.57;2.10;;;;;16.90;93952.00;;;;7401567;19;20145;-75
2023/09/20 07:31:36;;;;;;;3.20;1.58;;;;;16.80;93961.00;;;;7399493;19;20489;-74
2023/09/20 07:34:13;;;;;;;2.90;1.60;;;;;17.10;93955.00;;;;7402068;19;20600;-74
2023/09/20 07:36:49;;;;;;;4.03;1.83;;;;;16.90;93958.00;;;;7401833;19;20149;-74
2023/09/20 07:39:25;;;;;;;3.72;1.60;;;;;17.10;93954.00;;;;7403973;19;20133;-73
2023/09/20 07:41:59;;;;;;;3.75;1.95;;;;;17.20;93954.00;;;;7400749;19;20461;-74
2023/09/20 07:44:35;;;;;;;2.70;1.90;;;;;17.30;93945.00;;;;7399984;19;20180;-74
2023/09/20 07:47:11;;;;;;;2.42;1.55;;;;;17.30;93955.00;;;;7402154;19;20168;-73
2023/09/20 07:49:50;;;;;;;2.35;1.60;;;;;17.30;93949.00;;;;7402526;19;20125;-74
2023/09/20 07:52:20;;;;;;;2.83;1.67;;;;;17.50;93951.00;;;;7398359;19;20156;-74
2023/09/20 07:54:55;;;;;;;3.70;1.80;;;;;17.70;93947.00;;;;7403724;19;20136;-74
2023/09/20 07:57:27;;;;;;;2.35;1.67;;;;;17.80;93946.00;;;;7400307;19;20616;-76
2023/09/20 08:00:07;;;;;;;2.75;1.60;;;;;17.90;93937.00;;;;7398853;19;20155;-78
2023/09/20 08:02:46;;;;;;;3.35;1.98;;;;;18.10;93944.00;;;;7398225;19;20168;-79
2023/09/20 08:05:22;;;;;;;2.58;2.00;;;;;18.10;93939.00;;;;7398251;19;20140;-78
2023/09/20 08:07:57;;;;;;;5.15;2.15;;;;;18.10;93939.00;;;;7387462;19;20215;-79
2023/09/20 08:10:33;;;;;;;2.25;1.70;;;;;18.20;93932.00;;;;7393255;19;20515;-79
2023/09/20 08:13:08;;;;;;;2.47;1.88;;;;;18.10;93938.00;;;;7392313;19;20144;-79
2023/09/20 08:15:42;;;;;;;5.20;1.75;;;;;18.40;93940.00;;;;7394059;19;20133;-78
2023/09/20 08:21:04;;;;;;;2.35;1.70;;;;;19.00;93943.00;;;;7393395;19;20180;-79
2023/09/20 09:01:07;;;;;;;3.50;2.00;;;;;21.30;93927.00;;;;7390186;19;20691;-78
2023/09/20 09:03:42;;;;;;;1.85;1.50;;;;;21.40;93925.00;;;;7388761;19;20157;-76
2023/09/20 09:06:17;;;;;;;2.08;1.60;;;;;21.50;93937.00;;;;7391230;19;20626;-79
2023/09/20 09:08:45;;;;;;;2.15;1.83;;;;;21.00;93932.00;;;;7393570;19;20143;-75
2023/09/20 09:11:14;;;;;;;3.42;1.80;;;;;20.60;93926.00;;;;7390900;19;20165;-73
2023/09/20 09:13:50;;;;;;;2.67;1.50;;;;;20.30;93946.00;;;;7390590;19;20144;-74
2023/09/20 09:16:22;;;;;;;2.35;1.80;;;;;20.30;93935.00;;;;7392273;19;20758;-73
2023/09/20 09:18:56;;;;;;;2.58;1.92;;;;;20.70;93935.00;;;;7390225;19;20512;-75
2023/09/20 09:21:26;;;;;;;2.35;1.52;;;;;21.00;93930.00;;;;7393589;19;20532;-75
2023/09/20 09:24:00;;;;;;;3.15;1.95;;;;;21.70;93929.00;;;;7391183;19;20643;-75
2023/09/20 09:26:28;;;;;;;2.15;1.95;;;;;22.00;93927.00;;;;7390095;19;20149;-75
2023/09/20 09:29:02;;;;;;;3.67;1.77;;;;;22.20;93929.00;;;;7391079;19;20634;-75
2023/09/20 09:31:36;;;;;;;2.85;1.65;;;;;22.20;93919.00;;;;7386036;19;20153;-73
2023/09/20 09:34:12;;;;;;;2.85;2.00;;;;;22.50;93922.00;;;;7389744;19;20151;-76
2023/09/20 09:36:41;;;;;;;2.55;1.67;;;;;22.90;93913.00;;;;7392012;19;20611;-75
2023/09/20 09:39:16;;;;;;;3.83;1.50;;;;;22.50;93909.00;;;;7393929;19;20145;-74
2023/09/20 09:42:02;;;;;;;2.67;1.63;;;;;22.40;93907.00;;;;7392554;19;20137;-73
2023/09/20 09:44:48;;;;;;;2.85;1.60;;;;;22.40;93903.00;;;;7397516;19;20137;-75
2023/09/20 09:47:26;;;;;;;4.57;1.73;;;;;22.20;93889.00;;;;7397454;19;20208;-75
2023/09/20 09:50:03;;;;;;;1.80;1.70;;;;;22.20;93894.00;;;;7395233;19;20152;-74
2023/09/20 09:52:40;;;;;;;2.40;1.90;;;;;22.00;93898.00;;;;7394830;19;20136;-73
2023/09/20 09:55:16;;;;;;;3.08;1.70;;;;;22.30;93885.00;;;;7395515;19;20140;-74
2023/09/20 09:57:52;;;;;;;2.45;1.70;;;;;22.30;93890.00;;;;7395391;19;20168;-75
2023/09/20 10:00:20;;;;;;;4.32;2.08;;;;;22.10;93879.00;;;;7394671;19;20476;-75
2023/09/20 10:03:06;;;;;;;3.30;1.75;;;;;22.70;93889.00;;;;7394203;19;20156;-75
2023/09/20 10:05:48;;;;;;;2.20;1.80;;;;;23.00;93885.00;;;;7396188;19;20153;-75
2023/09/20 10:08:24;;;;;;;3.55;1.70;;;;;22.90;93885.00;;;;7394301;19;20468;-75
2023/09/20 10:11:05;;;;;;;4.82;1.75;;;;;23.30;93885.00;;;;7393913;19;20178;-75
2023/09/20 10:13:35;;;;;;;4.50;1.75;;;;;23.30;93885.00;;;;7396717;19;20588;-75
2023/09/20 10:16:11;;;;;;;1.90;1.70;;;;;23.10;93883.00;;;;7393964;19;20153;-73
2023/09/20 10:18:55;;;;;;;3.03;1.85;;;;;23.40;93888.00;;;;7392766;19;20134;-80
2023/09/20 10:21:30;;;;;;;4.28;1.92;;;;;23.70;93880.00;;;;7396039;19;20487;-78
2023/09/20 10:24:07;;;;;;;12.23;2.38;;;;;23.50;93879.00;;;;7395599;19;20129;-80
2023/09/20 10:26:40;;;;;;;3.45;1.77;;;;;23.20;93884.00;;;;7390063;19;20158;-78
2023/09/20 10:29:24;;;;;;;2.78;2.08;;;;;22.90;93879.00;;;;7387526;19;20156;-76
2023/09/20 10:32:14;;;;;;;2.53;1.80;;;;;22.60;93877.00;;;;7390443;19;20153;-79
2023/09/20 10:35:18;;;;;;;2.35;2.08;;;;;23.20;93862.00;;;;7389625;19;20306;-78
2023/09/20 10:38:10;;;;;;;2.65;2.20;;;;;23.30;93853.00;;;;7388217;19;20156;-80
2023/09/20 10:40:45;;;;;;;3.63;2.30;;;;;23.80;93851.00;;;;7388706;19;20187;-79
2023/09/20 10:43:35;;;;;;;2.35;2.05;;;;;24.20;93848.00;;;;7386761;19;20148;-79
2023/09/20 10:46:14;;;;;;;3.08;2.22;;;;;23.90;93839.00;;;;7388115;19;20595;-80
2023/09/20 10:48:50;;;;;;;3.38;2.10;;;;;24.20;93843.00;;;;7388639;19;20519;-79
2023/09/20 10:51:41;;;;;;;2.85;1.92;;;;;24.30;93839.00;;;;7389812;19;20156;-78
2023/09/20 10:54:29;;;;;;;3.20;1.90;;;;;24.50;93827.00;;;;7387489;19;20616;-79
2023/09/20 10:57:07;;;;;;;3.17;2.17;;;;;24.70;93832.00;;;;7389466;19;20207;-79
2023/09/20 10:59:43;;;;;;;2.50;2.30;;;;;24.70;93839.00;;;;7389420;19;20648;-78
2023/09/20 11:02:13;;;;;;;2.35;2.00;;;;;24.40;93837.00;;;;7385751;19;20290;-79
2023/09/20 11:04:53;;;;;;;2.63;1.90;;;;;24.70;93841.00;;;;7387569;19;20204;-78
2023/09/20 11:07:21;;;;;;;2.22;1.92;;;;;25.00;93835.00;;;;7386912;19;20137;-78
2023/09/20 11:09:55;;;;;;;2.30;2.10;;;;;25.20;93833.00;;;;7387842;19;20149;-77
2023/09/20 11:12:30;;;;;;;3.28;2.22;;;;;25.50;93828.00;;;;7389870;19;20134;-78
2023/09/20 11:15:01;;;;;;;2.78;2.13;;;;;25.50;93828.00;;;;7384718;19;20164;-79
2023/09/20 11:17:36;;;;;;;2.85;1.98;;;;;25.40;93831.00;;;;7389180;19;20128;-79
2023/09/20 11:20:04;;;;;;;64.68;6.32;;;;;25.40;93825.00;;;;7389737;19;20572;-79
2023/09/20 11:22:33;;;;;;;2.80;2.28;;;;;26.20;93818.00;;;;7386516;19;20651;-79
2023/09/20 11:25:08;;;;;;;3.05;2.20;;;;;25.70;93830.00;;;;7386885;19;20144;-78
2023/09/20 11:27:38;;;;;;;4.55;2.28;;;;;26.00;93822.00;;;;7386388;19;20604;-79
2023/09/20 11:30:13;;;;;;;3.72;2.10;;;;;26.40;93815.00;;;;7383578;19;20148;-75
2023/09/20 11:32:41;;;;;;;2.65;2.28;;;;;26.60;93814.00;;;;7384674;19;20473;-76
2023/09/20 11:35:32;;;;;;;3.08;2.20;;;;;26.50;93816.00;;;;7385372;19;20219;-75
2023/09/20 11:38:07;;;;;;;3.05;2.38;;;;;25.90;93812.00;;;;7387460;19;20133;-75
2023/09/20 11:40:42;;;;;;;5.50;2.33;;;;;26.10;93809.00;;;;7386230;19;20166;-73
2023/09/20 11:43:10;;;;;;;4.63;2.40;;;;;26.30;93801.00;;;;7394375;19;20144;-74
2023/09/20 11:45:41;;;;;;;2.85;2.53;;;;;25.50;93807.00;;;;7394156;19;20158;-74
2023/09/20 11:48:28;;;;;;;2.97;2.67;;;;;25.40;93805.00;;;;7393788;19;20619;-73
2023/09/20 11:51:02;;;;;;;3.78;2.40;;;;;25.90;93793.00;;;;7386197;19;20151;-73
2023/09/20 11:53:31;;;;;;;3.05;2.42;;;;;25.80;93795.00;;;;7393326;19;20156;-75
2023/09/20 11:56:08;;;;;;;2.70;2.47;;;;;26.90;93788.00;;;;7391809;19;20145;-74
2023/09/20 11:58:37;;;;;;;5.35;2.58;;;;;27.60;93791.00;;;;7393376;19;20643;-76
2023/09/20 12:01:11;;;;;;;2.55;2.10;;;;;28.30;93779.00;;;;7394536;19;20621;-75
2023/09/20 12:03:45;;;;;;;3.33;2.50;;;;;27.60;93773.00;;;;7393078;19;20572;-75
2023/09/20 12:06:21;;;;;;;3.05;2.45;;;;;26.70;93777.00;;;;7394803;19;20196;-75
2023/09/20 12:08:49;;;;;;;3.75;2.58;;;;;26.60;93771.00;;;;7395115;19;20141;-75
2023/09/20 12:11:17;;;;;;;4.43;2.58;;;;;26.60;93774.00;;;;7394227;19;20140;-75
2023/09/20 12:13:51;;;;;;;3.08;2.38;;;;;25.90;93770.00;;;;7393401;19;20136;-76
2023/09/20 12:16:23;;;;;;;2.50;2.13;;;;;26.20;93776.00;;;;7394391;19;20172;-76
2023/09/20 12:18:55;;;;;;;4.00;2.50;;;;;26.50;93774.00;;;;7395272;19;20136;-75
2023/09/20 12:21:31;;;;;;;4.22;2.20;;;;;26.40;93769.00;;;;7393600;19;20605;-76
2023/09/20 12:24:06;;;;;;;2.88;2.58;;;;;26.80;93766.00;;;;7395639;19;20145;-74
2023/09/20 12:26:41;;;;;;;11.90;3.25;;;;;27.40;93763.00;;;;7391736;19;20608;-73
2023/09/20 12:29:10;;;;;;;3.20;2.53;;;;;27.20;93747.00;;;;7394186;19;20125;-74
2023/09/20 12:31:55;;;;;;;2.53;2.25;;;;;26.90;93748.00;;;;7393048;19;20406;-75
2023/09/20 12:34:29;;;;;;;3.40;2.58;;;;;26.70;93750.00;;;;7391241;19;20192;-75
2023/09/20 12:37:04;;;;;;;4.25;2.75;;;;;27.10;93744.00;;;;7394681;19;20164;-74
2023/09/20 12:39:36;;;;;;;4.15;2.38;;;;;27.30;93743.00;;;;7393424;19;20240;-79
2023/09/20 12:42:11;;;;;;;6.13;2.70;;;;;27.20;93731.00;;;;7393299;19;20137;-77
2023/09/20 12:44:39;;;;;;;3.88;2.40;;;;;27.50;93731.00;;;;7393084;19;20171;-79
2023/09/20 12:47:07;;;;;;;3.08;2.28;;;;;27.50;93723.00;;;;7391876;19;20161;-77
2023/09/20 12:49:44;;;;;;;3.20;2.63;;;;;27.90;93727.00;;;;7392230;19;20172;-81
2023/09/20 12:52:12;;;;;;;2.83;2.20;;;;;27.60;93726.00;;;;7392301;19;20635;-76
2023/09/20 12:54:46;;;;;;;4.10;2.70;;;;;27.70;93723.00;;;;7391818;19;20136;-78
2023/09/20 12:57:24;;;;;;;3.08;2.70;;;;;27.80;93722.00;;;;7394735;19;20147;-78
2023/09/20 13:00:00;;;;;;;3.50;2.50;;;;;28.20;93710.00;;;;7391871;19;20140;-78
2023/09/20 13:02:28;;;;;;;4.25;2.60;;;;;28.80;93711.00;;;;7388067;19;20559;-78
2023/09/20 13:05:08;;;;;;;2.60;2.25;;;;;28.50;93713.00;;;;7394245;19;20155;-78
2023/09/20 13:07:37;;;;;;;2.85;2.50;;;;;28.30;93713.00;;;;7392171;19;20823;-78
2023/09/20 13:10:13;;;;;;;19.42;3.35;;;;;28.00;93713.00;;;;7392756;19;20870;-77
2023/09/20 13:12:42;;;;;;;2.70;2.47;;;;;27.80;93709.00;;;;7392220;19;20639;-78
2023/09/20 13:15:17;;;;;;;2.92;2.40;;;;;27.90;93710.00;;;;7391899;19;20136;-79
2023/09/20 13:17:55;;;;;;;3.45;2.60;;;;;28.10;93705.00;;;;7392739;19;20211;-77
2023/09/20 13:20:31;;;;;;;3.10;2.67;;;;;28.00;93707.00;;;;7391726;19;20133;-79
2023/09/20 13:23:05;;;;;;;2.30;2.10;;;;;27.60;93704.00;;;;7391242;19;20139;-76
2023/09/20 13:25:42;;;;;;;2.78;2.42;;;;;27.10;93707.00;;;;7394029;19;20125;-77
2023/09/20 13:28:17;;;;;;;3.55;2.53;;;;;26.70;93697.00;;;;7392065;19;20136;-78
2023/09/20 13:30:51;;;;;;;2.40;2.00;;;;;26.50;93695.00;;;;7388140;19;20563;-77
2023/09/20 13:33:25;;;;;;;3.08;2.00;;;;;26.10;93695.00;;;;7391710;19;20200;-77
2023/09/20 13:36:00;;;;;;;2.90;2.47;;;;;25.90;93701.00;;;;7390310;19;20128;-77